| time (UTC) | temp C | wind direction | speed KPH | gust KPH | rain 1hr cm | rain 24hr cm | rain mn cm | humidity % | barometer mb |
| 20260507101526 | 11 | 26 | 0.0 | 0.0 | 0.00 | 0.74 | 0.38 | 89 | 1011.7 |
| 20260507101011 | 11 | 331 | 0.0 | 0.0 | 0.00 | 0.74 | 0.38 | 89 | 1011.7 |
| 20260507100504 | 11 | 331 | 0.0 | 4.8 | 0.00 | 0.74 | 0.38 | 89 | 1011.6 |
| 20260507100025 | 11 | 331 | 0.0 | 4.8 | 0.00 | 0.74 | 0.38 | 89 | 1011.7 |
| 20260507095507 | 11 | 352 | 0.0 | 1.6 | 0.00 | 0.74 | 0.38 | 89 | 1011.7 |
| 20260507095009 | 11 | 344 | 0.0 | 1.6 | 0.00 | 0.74 | 0.38 | 89 | 1011.6 |
| 20260507094524 | 11 | 342 | 0.0 | 3.2 | 0.00 | 0.74 | 0.38 | 89 | 1011.7 |
| 20260507094008 | 12 | 22 | 0.0 | 3.2 | 0.00 | 0.74 | 0.38 | 88 | 1011.8 |
| 20260507093509 | 12 | 29 | 0.0 | 0.0 | 0.00 | 0.74 | 0.38 | 88 | 1011.6 |
| 20260507093030 | 12 | 29 | 0.0 | 0.0 | 0.00 | 0.74 | 0.38 | 88 | 1011.5 |
| 20260507092510 | 12 | 29 | 0.0 | 3.2 | 0.00 | 0.74 | 0.38 | 88 | 1011.7 |
| 20260507092007 | 12 | 29 | 0.0 | 3.2 | 0.00 | 0.74 | 0.38 | 88 | 1011.7 |
| 20260507091511 | 12 | 5 | 0.0 | 3.2 | 0.00 | 0.74 | 0.38 | 88 | 1011.7 |
| 20260507091003 | 12 | 9 | 0.0 | 1.6 | 0.00 | 0.74 | 0.38 | 88 | 1011.7 |
| 20260507090504 | 12 | 15 | 0.0 | 0.0 | 0.00 | 0.74 | 0.38 | 87 | 1011.6 |
| 20260507090018 | 12 | 15 | 0.0 | 3.2 | 0.00 | 0.74 | 0.38 | 87 | 1011.6 |
| 20260507085504 | 12 | 15 | 0.0 | 3.2 | 0.00 | 0.74 | 0.38 | 87 | 1011.5 |
| 20260507085007 | 12 | 16 | 0.0 | 4.8 | 0.00 | 0.74 | 0.38 | 87 | 1011.5 |
| 20260507084521 | 12 | 16 | 0.0 | 4.8 | 0.00 | 0.74 | 0.38 | 87 | 1011.4 |
| 20260507084012 | 12 | 15 | 1.6 | 6.4 | 0.00 | 0.74 | 0.38 | 87 | 1011.5 |
| 20260507083503 | 12 | 5 | 0.0 | 6.4 | 0.00 | 0.74 | 0.38 | 87 | 1011.7 |
| 20260507083007 | 12 | 58 | 0.0 | 6.4 | 0.00 | 0.74 | 0.38 | 86 | 1011.5 |
| 20260507082508 | 12 | 360 | 0.0 | 11.3 | 0.00 | 0.74 | 0.38 | 86 | 1011.4 |
| 20260507082004 | 12 | 22 | 1.6 | 11.3 | 0.00 | 0.74 | 0.38 | 86 | 1011.4 |
| 20260507081510 | 12 | 38 | 1.6 | 12.9 | 0.00 | 0.74 | 0.38 | 86 | 1011.2 |
| 20260507081004 | 12 | 20 | 1.6 | 12.9 | 0.00 | 0.74 | 0.38 | 85 | 1011.1 |
| 20260507080504 | 12 | 352 | 0.0 | 16.1 | 0.00 | 0.74 | 0.38 | 86 | 1010.9 |
| 20260507080013 | 12 | 323 | 6.4 | 16.1 | 0.00 | 0.74 | 0.38 | 86 | 1010.8 |
| 20260507075503 | 12 | 33 | 1.6 | 12.9 | 0.00 | 0.74 | 0.38 | 87 | 1010.9 |
| 20260507075006 | 12 | 74 | 6.4 | 12.9 | 0.00 | 0.74 | 0.38 | 88 | 1010.7 |
| 20260507074527 | 12 | 352 | 3.2 | 9.7 | 0.00 | 0.74 | 0.38 | 88 | 1010.7 |
| 20260507074007 | 12 | 34 | 3.2 | 9.7 | 0.00 | 0.74 | 0.38 | 89 | 1010.6 |
| 20260507073508 | 12 | 32 | 1.6 | 9.7 | 0.00 | 0.74 | 0.38 | 89 | 1010.5 |
| 20260507073022 | 13 | 40 | 3.2 | 8.0 | 0.00 | 0.74 | 0.38 | 89 | 1010.4 |
| 20260507072509 | 13 | 34 | 1.6 | 6.4 | 0.00 | 0.74 | 0.38 | 89 | 1010.6 |
| 20260507072003 | 13 | 5 | 0.0 | 6.4 | 0.00 | 0.74 | 0.38 | 89 | 1010.5 |
| 20260507071507 | 13 | 293 | 3.2 | 6.4 | 0.00 | 0.74 | 0.38 | 89 | 1010.4 |
| 20260507071004 | 13 | 19 | 0.0 | 8.0 | 0.00 | 0.74 | 0.38 | 89 | 1010.3 |
| 20260507070504 | 13 | 16 | 4.8 | 8.0 | 0.00 | 0.74 | 0.38 | 89 | 1010.4 |
| 20260507070014 | 13 | 28 | 3.2 | 6.4 | 0.00 | 0.74 | 0.38 | 89 | 1010.5 |
| 20260507065505 | 13 | 15 | 1.6 | 3.2 | 0.00 | 0.74 | 0.38 | 89 | 1010.5 |
| 20260507065007 | 13 | 26 | 0.0 | 11.3 | 0.00 | 0.74 | 0.38 | 89 | 1010.5 |
| 20260507064515 | 13 | 67 | 1.6 | 12.9 | 0.00 | 0.74 | 0.38 | 89 | 1010.7 |
| 20260507064006 | 13 | 24 | 1.6 | 14.5 | 0.00 | 0.74 | 0.38 | 89 | 1010.6 |
| 20260507063507 | 13 | 23 | 3.2 | 16.1 | 0.00 | 0.74 | 0.38 | 89 | 1010.2 |
| 20260507063021 | 13 | 36 | 3.2 | 12.9 | 0.00 | 0.74 | 0.38 | 89 | 1010.3 |
| 20260507062508 | 13 | 5 | 4.8 | 12.9 | 0.03 | 0.74 | 0.38 | 89 | 1009.8 |
| 20260507062008 | 13 | 346 | 6.4 | 11.3 | 0.05 | 0.74 | 0.38 | 88 | 1010.0 |
| 20260507061531 | 13 | 360 | 4.8 | 12.9 | 0.10 | 0.74 | 0.38 | 88 | 1010.0 |
| 20260507061006 | 13 | 343 | 4.8 | 12.9 | 0.15 | 0.74 | 0.38 | 88 | 1010.3 |
| 20260507060503 | 13 | 42 | 3.2 | 11.3 | 0.20 | 0.74 | 0.38 | 88 | 1010.3 |
| 20260507060009 | 13 | 345 | 3.2 | 14.5 | 0.25 | 0.74 | 0.38 | 88 | 1010.2 |
| 20260507055504 | 14 | 350 | 3.2 | 14.5 | 0.33 | 0.74 | 0.38 | 87 | 1010.4 |
| 20260507055006 | 14 | 42 | 4.8 | 12.9 | 0.36 | 0.74 | 0.38 | 87 | 1010.3 |
| 20260507054515 | 14 | 86 | 4.8 | 12.9 | 0.36 | 0.74 | 0.38 | 87 | 1010.7 |
| 20260507054006 | 15 | 228 | 0.0 | 6.4 | 0.36 | 0.74 | 0.38 | 88 | 1010.5 |
| 20260507053506 | 15 | 27 | 1.6 | 4.8 | 0.38 | 0.74 | 0.38 | 87 | 1010.1 |
| 20260507053023 | 15 | 30 | 0.0 | 8.0 | 0.38 | 0.74 | 0.38 | 87 | 1010.0 |
| 20260507052507 | 15 | 20 | 1.6 | 8.0 | 0.36 | 0.71 | 0.36 | 86 | 1010.1 |
| 20260507052009 | 15 | 74 | 3.2 | 8.0 | 0.33 | 0.69 | 0.33 | 85 | 1010.4 |
| 20260507051524 | 15 | 33 | 0.0 | 3.2 | 0.28 | 0.64 | 0.28 | 84 | 1010.7 |
| 20260507051009 | 16 | 61 | 0.0 | 3.2 | 0.23 | 0.58 | 0.23 | 83 | 1010.4 |
| 20260507050515 | 16 | 304 | 0.0 | 3.2 | 0.18 | 0.53 | 0.18 | 82 | 1010.7 |
| 20260507050032 | 16 | 277 | 0.0 | 0.0 | 0.13 | 0.48 | 0.13 | 82 | 1010.8 |
| 20260507045503 | 16 | 278 | 0.0 | 0.0 | 0.05 | 0.41 | 0.05 | 81 | 1010.3 |
| 20260507045004 | 16 | 277 | 0.0 | 0.0 | 0.03 | 0.38 | 0.03 | 80 | 1010.2 |
| 20260507044513 | 16 | 22 | 0.0 | 3.2 | 0.03 | 0.38 | 0.03 | 79 | 1010.4 |
| 20260507044003 | 17 | 22 | 0.0 | 3.2 | 0.03 | 0.38 | 0.03 | 78 | 1010.7 |
| 20260507043506 | 17 | 323 | 0.0 | 4.8 | 0.00 | 0.36 | 0.00 | 77 | 1010.8 |
| 20260507043019 | 17 | 196 | 0.0 | 4.8 | 0.00 | 0.36 | 0.00 | 76 | 1010.6 |
| 20260507042507 | 17 | 360 | 0.0 | 8.0 | 0.00 | 0.36 | 0.00 | 77 | 1010.5 |
| 20260507042007 | 17 | 281 | 1.6 | 8.0 | 0.00 | 0.36 | 0.00 | 77 | 1010.6 |
| 20260507041522 | 17 | 31 | 0.0 | 8.0 | 0.00 | 0.36 | 0.00 | 79 | 1010.4 |
| 20260507041008 | 17 | 164 | 1.6 | 8.0 | 0.00 | 0.36 | 0.00 | 78 | 1010.3 |
| 20260507040510 | 17 | 299 | 1.6 | 11.3 | 0.00 | 0.36 | 0.00 | 79 | 1009.9 |
| 20260507040023 | 17 | 306 | 1.6 | 11.3 | 0.00 | 0.36 | 0.00 | 80 | 1009.8 |
| 20260507035508 | 17 | 338 | 1.6 | 16.1 | 0.00 | 0.36 | 0.36 | 82 | 1010.0 |
| 20260507035011 | 17 | 42 | 8.0 | 16.1 | 0.00 | 0.36 | 0.36 | 83 | 1009.9 |
| 20260507034511 | 17 | 360 | 3.2 | 16.1 | 0.00 | 0.36 | 0.36 | 84 | 1010.0 |
| 20260507034004 | 18 | 39 | 1.6 | 8.0 | 0.00 | 0.36 | 0.36 | 84 | 1010.0 |
| 20260507033503 | 18 | 340 | 0.0 | 8.0 | 0.00 | 0.36 | 0.36 | 84 | 1010.0 |
| 20260507033018 | 18 | 360 | 1.6 | 8.0 | 0.00 | 0.36 | 0.36 | 84 | 1009.9 |
| 20260507032507 | 18 | 42 | 0.0 | 3.2 | 0.00 | 0.36 | 0.36 | 84 | 1009.7 |
| 20260507032006 | 18 | 331 | 0.0 | 12.9 | 0.00 | 0.36 | 0.36 | 84 | 1009.6 |
| 20260507031519 | 18 | 292 | 0.0 | 12.9 | 0.00 | 0.36 | 0.36 | 85 | 1009.5 |
| 20260507031010 | 18 | 316 | 0.0 | 9.7 | 0.00 | 0.36 | 0.36 | 85 | 1009.5 |
| 20260507030507 | 18 | 75 | 0.0 | 9.7 | 0.00 | 0.36 | 0.36 | 85 | 1009.5 |
| 20260507030004 | 18 | 338 | 0.0 | 6.4 | 0.00 | 0.36 | 0.36 | 86 | 1009.6 |
| 20260507025503 | 18 | 15 | 0.0 | 3.2 | 0.00 | 0.36 | 0.36 | 86 | 1009.6 |
| 20260507025003 | 18 | 346 | 0.0 | 0.0 | 0.00 | 0.36 | 0.36 | 86 | 1009.4 |
| 20260507024512 | 18 | 346 | 0.0 | 1.6 | 0.00 | 0.36 | 0.36 | 86 | 1009.3 |
| 20260507024006 | 18 | 346 | 0.0 | 1.6 | 0.00 | 0.36 | 0.36 | 86 | 1009.3 |
| 20260507023504 | 18 | 352 | 0.0 | 1.6 | 0.00 | 0.36 | 0.36 | 86 | 1009.1 |
| 20260507023012 | 18 | 190 | 0.0 | 0.0 | 0.00 | 0.36 | 0.36 | 86 | 1009.0 |
| 20260507022507 | 18 | 190 | 0.0 | 0.0 | 0.00 | 0.36 | 0.36 | 86 | 1009.2 |
| 20260507022004 | 18 | 190 | 0.0 | 0.0 | 0.00 | 0.36 | 0.36 | 85 | 1009.0 |
| 20260507021518 | 18 | 190 | 0.0 | 0.0 | 0.00 | 0.36 | 0.36 | 85 | 1008.8 |
| 20260507021012 | 18 | 190 | 0.0 | 0.0 | 0.00 | 0.36 | 0.36 | 85 | 1008.9 |
| 20260507020508 | 18 | 190 | 0.0 | 0.0 | 0.00 | 0.36 | 0.36 | 85 | 1008.9 |
| 20260507020023 | 18 | 190 | 0.0 | 0.0 | 0.00 | 0.36 | 0.36 | 85 | 1009.0 |
| 20260507015506 | 18 | 190 | 0.0 | 0.0 | 0.00 | 0.36 | 0.36 | 85 | 1009.0 |
| 20260507015003 | 18 | 190 | 0.0 | 0.0 | 0.00 | 0.36 | 0.36 | 85 | 1008.9 |
| 20260507014509 | 18 | 190 | 0.0 | 0.0 | 0.00 | 0.36 | 0.36 | 84 | 1008.9 |
| 20260507014005 | 18 | 190 | 0.0 | 0.0 | 0.00 | 0.36 | 0.36 | 84 | 1009.0 |
| 20260507013503 | 18 | 190 | 0.0 | 0.0 | 0.00 | 0.36 | 0.36 | 84 | 1009.2 |
| 20260507013013 | 18 | 190 | 0.0 | 3.2 | 0.00 | 0.36 | 0.36 | 84 | 1009.3 |
| 20260507012504 | 18 | 169 | 0.0 | 0.0 | 0.00 | 0.36 | 0.36 | 83 | 1009.4 |
| 20260507012006 | 18 | 231 | 0.0 | 0.0 | 0.00 | 0.36 | 0.36 | 83 | 1009.6 |
| 20260507011516 | 18 | 231 | 0.0 | 0.0 | 0.00 | 0.36 | 0.36 | 82 | 1009.6 |
| 20260507011005 | 18 | 231 | 0.0 | 0.0 | 0.00 | 0.36 | 0.36 | 82 | 1009.6 |
| 20260507010511 | 18 | 232 | 0.0 | 0.0 | 0.00 | 0.36 | 0.36 | 82 | 1009.6 |
| 20260507010030 | 18 | 231 | 0.0 | 0.0 | 0.00 | 0.36 | 0.36 | 81 | 1009.4 |
| 20260507005508 | 18 | 232 | 0.0 | 0.0 | 0.00 | 0.36 | 0.36 | 81 | 1009.4 |
| 20260507005011 | 18 | 231 | 0.0 | 0.0 | 0.00 | 0.36 | 0.36 | 81 | 1009.2 |
| 20260507004523 | 19 | 231 | 0.0 | 0.0 | 0.00 | 0.36 | 0.36 | 81 | 1009.2 |
| 20260507004010 | 19 | 232 | 0.0 | 0.0 | 0.00 | 0.36 | 0.36 | 80 | 1008.8 |
| 20260507003503 | 19 | 231 | 0.0 | 0.0 | 0.00 | 0.36 | 0.36 | 80 | 1009.0 |
| 20260507003012 | 19 | 232 | 0.0 | 0.0 | 0.00 | 0.36 | 0.36 | 79 | 1008.9 |
| 20260507002505 | 20 | 231 | 0.0 | 0.0 | 0.00 | 0.36 | 0.36 | 79 | 1008.8 |
| 20260507002004 | 20 | 232 | 0.0 | 0.0 | 0.00 | 0.36 | 0.36 | 79 | 1008.9 |
| 20260507001514 | 20 | 231 | 0.0 | 0.0 | 0.00 | 0.36 | 0.36 | 79 | 1008.8 |
| 20260507001005 | 20 | 232 | 0.0 | 0.0 | 0.00 | 0.36 | 0.36 | 79 | 1009.0 |
| 20260507000505 | 20 | 232 | 0.0 | 0.0 | 0.00 | 0.36 | 0.36 | 77 | 1008.9 |
| 20260507000027 | 20 | 232 | 0.0 | 0.0 | 0.00 | 0.36 | 0.36 | 77 | 1008.8 |
| 20260506235506 | 20 | 231 | 0.0 | 0.0 | 0.00 | 0.36 | 0.36 | 77 | 1008.9 |
| 20260506235009 | 20 | 231 | 0.0 | 0.0 | 0.00 | 0.36 | 0.36 | 77 | 1008.7 |
| 20260506234541 | 20 | 232 | 0.0 | 0.0 | 0.00 | 0.36 | 0.36 | 77 | 1008.6 |
| 20260506234014 | 20 | 232 | 0.0 | 0.0 | 0.00 | 0.36 | 0.36 | 76 | 1008.5 |
| 20260506233509 | 20 | 232 | 0.0 | 3.2 | 0.00 | 0.36 | 0.36 | 76 | 1008.4 |
| 20260506233028 | 20 | 227 | 0.0 | 3.2 | 0.00 | 0.36 | 0.36 | 76 | 1008.4 |
| 20260506232503 | 20 | 207 | 0.0 | 0.0 | 0.00 | 0.36 | 0.36 | 76 | 1008.3 |
| 20260506232003 | 21 | 210 | 0.0 | 1.6 | 0.00 | 0.36 | 0.36 | 75 | 1008.2 |
| 20260506231511 | 21 | 188 | 0.0 | 4.8 | 0.00 | 0.36 | 0.36 | 74 | 1008.2 |
| 20260506231004 | 21 | 249 | 0.0 | 4.8 | 0.00 | 0.36 | 0.36 | 74 | 1008.1 |
| 20260506230504 | 21 | 250 | 0.0 | 3.2 | 0.00 | 0.36 | 0.36 | 74 | 1008.1 |
| 20260506230018 | 21 | 238 | 0.0 | 6.4 | 0.00 | 0.36 | 0.36 | 74 | 1008.2 |
| 20260506225505 | 21 | 244 | 0.0 | 6.4 | 0.00 | 0.36 | 0.36 | 73 | 1008.3 |
| 20260506225006 | 21 | 240 | 0.0 | 6.4 | 0.00 | 0.36 | 0.36 | 73 | 1008.3 |
| 20260506224527 | 21 | 244 | 0.0 | 4.8 | 0.00 | 0.36 | 0.36 | 73 | 1008.2 |
| 20260506224006 | 21 | 264 | 1.6 | 4.8 | 0.00 | 0.36 | 0.36 | 73 | 1008.1 |
| 20260506223507 | 21 | 180 | 0.0 | 8.0 | 0.00 | 0.36 | 0.36 | 73 | 1008.1 |
| 20260506223026 | 21 | 301 | 3.2 | 8.0 | 0.00 | 0.36 | 0.36 | 72 | 1008.1 |
| 20260506222509 | 21 | 230 | 0.0 | 9.7 | 0.00 | 0.36 | 0.36 | 73 | 1008.1 |
| 20260506222015 | 21 | 285 | 0.0 | 9.7 | 0.00 | 0.36 | 0.36 | 72 | 1008.2 |
| 20260506221511 | 21 | 239 | 3.2 | 9.7 | 0.00 | 0.36 | 0.36 | 72 | 1008.1 |
| 20260506221016 | 21 | 213 | 3.2 | 4.8 | 0.00 | 0.36 | 0.36 | 72 | 1008.2 |
| 20260506220504 | 21 | 244 | 0.0 | 6.4 | 0.00 | 0.36 | 0.36 | 72 | 1008.1 |
| 20260506220029 | 21 | 235 | 1.6 | 16.1 | 0.00 | 0.36 | 0.36 | 72 | 1008.1 |
| 20260506215504 | 21 | 350 | 3.2 | 16.1 | 0.00 | 0.36 | 0.36 | 72 | 1008.1 |
| 20260506215006 | 21 | 188 | 3.2 | 12.9 | 0.00 | 0.36 | 0.36 | 72 | 1008.2 |
| 20260506214521 | 21 | 230 | 3.2 | 12.9 | 0.00 | 0.36 | 0.36 | 72 | 1008.2 |
| 20260506214008 | 21 | 296 | 0.0 | 16.1 | 0.00 | 0.36 | 0.36 | 73 | 1008.2 |
| 20260506213507 | 21 | 310 | 3.2 | 16.1 | 0.00 | 0.36 | 0.36 | 72 | 1008.1 |
| 20260506213022 | 21 | 204 | 4.8 | 17.7 | 0.00 | 0.36 | 0.36 | 72 | 1008.0 |
| 20260506212510 | 21 | 304 | 4.8 | 14.5 | 0.00 | 0.36 | 0.36 | 72 | 1008.0 |
| 20260506212010 | 21 | 174 | 0.0 | 17.7 | 0.00 | 0.36 | 0.36 | 73 | 1007.8 |
| 20260506211527 | 21 | 236 | 0.0 | 17.7 | 0.00 | 0.36 | 0.36 | 73 | 1007.9 |
| 20260506211011 | 21 | 242 | 6.4 | 17.7 | 0.00 | 0.36 | 0.36 | 72 | 1007.9 |
| 20260506210503 | 21 | 196 | 3.2 | 14.5 | 0.00 | 0.36 | 0.36 | 73 | 1007.9 |
| 20260506210013 | 21 | 33 | 3.2 | 14.5 | 0.00 | 0.36 | 0.36 | 73 | 1007.9 |
| 20260506205505 | 21 | 252 | 3.2 | 12.9 | 0.00 | 0.36 | 0.36 | 73 | 1007.8 |
| 20260506205006 | 21 | 242 | 1.6 | 14.5 | 0.00 | 0.36 | 0.36 | 73 | 1007.7 |
| 20260506204520 | 21 | 204 | 4.8 | 19.3 | 0.00 | 0.36 | 0.36 | 73 | 1007.7 |
| 20260506204008 | 21 | 265 | 6.4 | 19.3 | 0.00 | 0.36 | 0.36 | 72 | 1007.7 |
| 20260506203515 | 21 | 300 | 8.0 | 17.7 | 0.00 | 0.36 | 0.36 | 72 | 1007.7 |
| 20260506203020 | 21 | 267 | 4.8 | 16.1 | 0.00 | 0.36 | 0.36 | 72 | 1007.8 |
| 20260506202507 | 21 | 229 | 4.8 | 16.1 | 0.00 | 0.36 | 0.36 | 72 | 1007.7 |
| 20260506202003 | 21 | 267 | 4.8 | 20.9 | 0.00 | 0.36 | 0.36 | 72 | 1007.7 |
| 20260506201508 | 21 | 70 | 3.2 | 25.7 | 0.00 | 0.36 | 0.36 | 72 | 1007.9 |
| 20260506201003 | 21 | 300 | 4.8 | 25.7 | 0.00 | 0.36 | 0.36 | 73 | 1007.7 |
| 20260506200502 | 21 | 308 | 3.2 | 14.5 | 0.00 | 0.36 | 0.36 | 73 | 1007.8 |
| 20260506200012 | 21 | 190 | 1.6 | 22.5 | 0.00 | 0.36 | 0.36 | 73 | 1007.7 |
| 20260506195504 | 21 | 180 | 1.6 | 22.5 | 0.00 | 0.36 | 0.36 | 72 | 1007.7 |
| 20260506195007 | 21 | 251 | 4.8 | 17.7 | 0.00 | 0.36 | 0.36 | 72 | 1007.7 |
| 20260506194521 | 21 | 68 | 0.0 | 16.1 | 0.00 | 0.36 | 0.36 | 72 | 1007.7 |
| 20260506194008 | 21 | 253 | 1.6 | 16.1 | 0.00 | 0.36 | 0.36 | 72 | 1007.7 |
| 20260506193506 | 21 | 218 | 3.2 | 17.7 | 0.00 | 0.36 | 0.36 | 72 | 1007.8 |
| 20260506193020 | 21 | 243 | 3.2 | 16.1 | 0.00 | 0.36 | 0.36 | 73 | 1007.8 |
| 20260506192506 | 21 | 162 | 1.6 | 16.1 | 0.00 | 0.36 | 0.36 | 74 | 1007.9 |
| 20260506192011 | 21 | 277 | 4.8 | 11.3 | 0.00 | 0.36 | 0.36 | 74 | 1008.0 |
| 20260506191526 | 21 | 257 | 3.2 | 11.3 | 0.00 | 0.36 | 0.36 | 73 | 1008.0 |
| 20260506191003 | 21 | 232 | 3.2 | 12.9 | 0.00 | 0.36 | 0.36 | 73 | 1008.0 |
| 20260506190505 | 21 | 307 | 1.6 | 16.1 | 0.00 | 0.36 | 0.36 | 74 | 1008.1 |
| 20260506190008 | 21 | 306 | 1.6 | 16.1 | 0.00 | 0.36 | 0.36 | 73 | 1008.1 |
| 20260506185504 | 21 | 300 | 3.2 | 14.5 | 0.00 | 0.36 | 0.36 | 73 | 1008.1 |
| 20260506185006 | 21 | 246 | 4.8 | 12.9 | 0.00 | 0.36 | 0.36 | 73 | 1008.2 |
| 20260506184515 | 21 | 229 | 3.2 | 16.1 | 0.00 | 0.36 | 0.36 | 73 | 1008.1 |
| 20260506184004 | 21 | 272 | 4.8 | 17.7 | 0.00 | 0.36 | 0.36 | 73 | 1008.1 |
| 20260506183507 | 21 | 179 | 4.8 | 17.7 | 0.00 | 0.36 | 0.36 | 74 | 1008.2 |
| 20260506183019 | 21 | 228 | 1.6 | 24.1 | 0.00 | 0.36 | 0.36 | 74 | 1008.5 |
| 20260506182505 | 20 | 198 | 4.8 | 24.1 | 0.00 | 0.36 | 0.36 | 74 | 1008.3 |
| 20260506182009 | 21 | 276 | 3.2 | 24.1 | 0.00 | 0.36 | 0.36 | 74 | 1008.5 |
| 20260506181523 | 20 | 142 | 4.8 | 24.1 | 0.00 | 0.36 | 0.36 | 74 | 1008.7 |
| 20260506181008 | 20 | 173 | 3.2 | 20.9 | 0.00 | 0.36 | 0.36 | 75 | 1008.7 |
| 20260506180507 | 20 | 256 | 3.2 | 19.3 | 0.00 | 0.36 | 0.36 | 76 | 1008.8 |
| 20260506180007 | 20 | 269 | 3.2 | 19.3 | 0.00 | 0.36 | 0.36 | 76 | 1008.8 |
| 20260506175504 | 20 | 132 | 6.4 | 19.3 | 0.00 | 0.36 | 0.36 | 77 | 1009.0 |
| 20260506175005 | 20 | 312 | 6.4 | 30.6 | 0.00 | 0.36 | 0.36 | 78 | 1009.0 |
| 20260506174512 | 19 | 265 | 1.6 | 30.6 | 0.00 | 0.36 | 0.36 | 79 | 1008.9 |
| 20260506174004 | 19 | 29 | 4.8 | 16.1 | 0.00 | 0.36 | 0.36 | 79 | 1009.0 |
| 20260506173504 | 18 | 240 | 6.4 | 20.9 | 0.00 | 0.36 | 0.36 | 80 | 1008.9 |
| 20260506173021 | 18 | 234 | 6.4 | 20.9 | 0.00 | 0.36 | 0.36 | 80 | 1008.9 |
| 20260506172504 | 18 | 223 | 4.8 | 24.1 | 0.00 | 0.36 | 0.36 | 80 | 1009.0 |
| 20260506172008 | 18 | 346 | 9.7 | 24.1 | 0.00 | 0.36 | 0.36 | 80 | 1009.1 |
| 20260506171525 | 18 | 232 | 9.7 | 22.5 | 0.00 | 0.36 | 0.36 | 81 | 1009.3 |
| 20260506171011 | 18 | 210 | 3.2 | 22.5 | 0.00 | 0.36 | 0.36 | 82 | 1009.2 |
| 20260506170509 | 18 | 249 | 9.7 | 22.5 | 0.00 | 0.36 | 0.36 | 83 | 1009.3 |
| 20260506170025 | 18 | 266 | 8.0 | 27.4 | 0.00 | 0.36 | 0.36 | 84 | 1009.2 |
| 20260506165508 | 18 | 264 | 6.4 | 27.4 | 0.00 | 0.36 | 0.36 | 86 | 1009.1 |
| 20260506165010 | 17 | 161 | 3.2 | 14.5 | 0.00 | 0.36 | 0.36 | 86 | 1009.2 |
| 20260506164513 | 17 | 206 | 6.4 | 17.7 | 0.00 | 0.36 | 0.36 | 86 | 1009.3 |
| 20260506164003 | 17 | 229 | 6.4 | 17.7 | 0.03 | 0.36 | 0.36 | 87 | 1009.4 |
| 20260506163506 | 17 | 245 | 4.8 | 17.7 | 0.03 | 0.36 | 0.36 | 87 | 1009.4 |
| 20260506163015 | 17 | 217 | 4.8 | 20.9 | 0.05 | 0.36 | 0.36 | 87 | 1009.3 |
| 20260506162505 | 17 | 213 | 6.4 | 20.9 | 0.05 | 0.36 | 0.36 | 87 | 1009.4 |
| 20260506162008 | 17 | 238 | 3.2 | 14.5 | 0.05 | 0.36 | 0.36 | 88 | 1009.5 |
| 20260506161522 | 17 | 112 | 1.6 | 14.5 | 0.08 | 0.36 | 0.36 | 89 | 1009.4 |
| 20260506161007 | 17 | 277 | 1.6 | 12.9 | 0.08 | 0.36 | 0.36 | 89 | 1009.3 |
| 20260506160509 | 17 | 230 | 0.0 | 17.7 | 0.10 | 0.36 | 0.36 | 89 | 1009.5 |
| 20260506160035 | 17 | 155 | 6.4 | 17.7 | 0.10 | 0.36 | 0.36 | 88 | 1009.6 |
| 20260506155508 | 16 | 211 | 3.2 | 12.9 | 0.10 | 0.36 | 0.36 | 89 | 1009.8 |
| 20260506155011 | 16 | 233 | 1.6 | 14.5 | 0.10 | 0.36 | 0.36 | 89 | 1009.9 |
| 20260506154529 | 16 | 193 | 4.8 | 14.5 | 0.10 | 0.36 | 0.36 | 88 | 1009.8 |
| 20260506154014 | 16 | 213 | 3.2 | 9.7 | 0.10 | 0.33 | 0.33 | 88 | 1009.7 |
| 20260506153507 | 16 | 183 | 3.2 | 9.7 | 0.13 | 0.33 | 0.33 | 88 | 1009.6 |
| 20260506153010 | 16 | 336 | 1.6 | 17.7 | 0.18 | 0.30 | 0.30 | 88 | 1009.7 |
| 20260506152509 | 16 | 184 | 1.6 | 17.7 | 0.20 | 0.30 | 0.30 | 87 | 1009.9 |
| 20260506152004 | 16 | 293 | 3.2 | 14.5 | 0.23 | 0.30 | 0.30 | 87 | 1010.2 |
| 20260506151518 | 16 | 203 | 3.2 | 14.5 | 0.23 | 0.28 | 0.28 | 87 | 1010.5 |
| 20260506151008 | 16 | 80 | 1.6 | 11.3 | 0.23 | 0.28 | 0.28 | 87 | 1010.5 |
| 20260506150506 | 16 | 165 | 0.0 | 14.5 | 0.20 | 0.25 | 0.25 | 87 | 1010.7 |
| 20260506150025 | 16 | 221 | 3.2 | 12.9 | 0.23 | 0.25 | 0.25 | 87 | 1010.6 |
| 20260506145512 | 16 | 238 | 1.6 | 9.7 | 0.23 | 0.25 | 0.25 | 86 | 1010.6 |
| 20260506145011 | 16 | 198 | 1.6 | 9.7 | 0.25 | 0.25 | 0.25 | 85 | 1010.6 |
| 20260506144525 | 16 | 152 | 3.2 | 6.4 | 0.25 | 0.25 | 0.25 | 85 | 1010.7 |
| 20260506144013 | 16 | 237 | 1.6 | 6.4 | 0.23 | 0.23 | 0.23 | 84 | 1010.7 |
| 20260506143512 | 16 | 283 | 0.0 | 9.7 | 0.20 | 0.20 | 0.20 | 84 | 1010.7 |
| 20260506143026 | 16 | 205 | 1.6 | 9.7 | 0.13 | 0.13 | 0.13 | 83 | 1010.7 |
| 20260506142504 | 17 | 215 | 4.8 | 9.7 | 0.10 | 0.10 | 0.10 | 83 | 1010.7 |
| 20260506142011 | 17 | 184 | 0.0 | 14.5 | 0.08 | 0.08 | 0.08 | 82 | 1010.6 |
| 20260506141516 | 17 | 122 | 4.8 | 14.5 | 0.05 | 0.05 | 0.05 | 82 | 1010.6 |
| 20260506141009 | 17 | 148 | 0.0 | 8.0 | 0.05 | 0.05 | 0.05 | 82 | 1010.6 |
| 20260506140507 | 17 | 188 | 0.0 | 8.0 | 0.05 | 0.05 | 0.05 | 80 | 1010.7 |
| 20260506140021 | 17 | 141 | 1.6 | 4.8 | 0.03 | 0.03 | 0.03 | 80 | 1010.7 |
| 20260506135507 | 17 | 148 | 0.0 | 6.4 | 0.03 | 0.03 | 0.03 | 79 | 1010.8 |
| 20260506135012 | 17 | 266 | 1.6 | 9.7 | 0.00 | 0.00 | 0.00 | 79 | 1010.8 |
| 20260506134525 | 17 | 223 | 1.6 | 9.7 | 0.00 | 0.00 | 0.00 | 78 | 1010.9 |
| 20260506134007 | 17 | 204 | 1.6 | 9.7 | 0.00 | 0.00 | 0.00 | 78 | 1011.0 |
| 20260506133509 | 18 | 239 | 0.0 | 6.4 | 0.00 | 0.00 | 0.00 | 77 | 1011.0 |
| 20260506133026 | 18 | 127 | 3.2 | 6.4 | 0.00 | 0.00 | 0.00 | 76 | 1010.9 |
| 20260506132514 | 18 | 352 | 0.0 | 4.8 | 0.00 | 0.00 | 0.00 | 76 | 1010.8 |
| 20260506132012 | 18 | 5 | 0.0 | 8.0 | 0.00 | 0.00 | 0.00 | 75 | 1010.8 |
| 20260506131541 | 18 | 94 | 1.6 | 8.0 | 0.00 | 0.00 | 0.00 | 75 | 1010.6 |
| 20260506131007 | 18 | 252 | 3.2 | 9.7 | 0.00 | 0.00 | 0.00 | 74 | 1010.6 |
| 20260506130504 | 18 | 104 | 1.6 | 11.3 | 0.00 | 0.00 | 0.00 | 74 | 1010.5 |
| 20260506130033 | 18 | 281 | 3.2 | 12.9 | 0.00 | 0.00 | 0.00 | 74 | 1010.4 |
| 20260506125507 | 18 | 144 | 0.0 | 12.9 | 0.00 | 0.00 | 0.00 | 74 | 1010.3 |
| 20260506125011 | 18 | 223 | 0.0 | 11.3 | 0.00 | 0.00 | 0.00 | 74 | 1010.3 |
| 20260506124523 | 18 | 257 | 1.6 | 16.1 | 0.00 | 0.00 | 0.00 | 73 | 1010.3 |
| 20260506124010 | 18 | 243 | 3.2 | 16.1 | 0.00 | 0.00 | 0.00 | 72 | 1010.3 |
| 20260506123509 | 18 | 246 | 0.0 | 9.7 | 0.00 | 0.00 | 0.00 | 72 | 1010.4 |
| 20260506123026 | 18 | 142 | 0.0 | 16.1 | 0.00 | 0.00 | 0.00 | 72 | 1010.4 |
| 20260506122508 | 18 | 259 | 1.6 | 16.1 | 0.00 | 0.00 | 0.00 | 72 | 1010.6 |
| 20260506122010 | 18 | 180 | 4.8 | 12.9 | 0.00 | 0.00 | 0.00 | 71 | 1010.6 |
| 20260506121527 | 18 | 140 | 1.6 | 16.1 | 0.00 | 0.00 | 0.00 | 71 | 1010.6 |
| 20260506121013 | 18 | 226 | 4.8 | 16.1 | 0.00 | 0.00 | 0.00 | 71 | 1010.6 |
| 20260506120509 | 18 | 360 | 4.8 | 16.1 | 0.00 | 0.00 | 0.00 | 71 | 1010.6 |
| 20260506120021 | 18 | 279 | 3.2 | 16.1 | 0.00 | 0.00 | 0.00 | 71 | 1010.6 |
| 20260506115510 | 18 | 264 | 1.6 | 14.5 | 0.00 | 0.00 | 0.00 | 71 | 1010.6 |
| 20260506115004 | 18 | 194 | 1.6 | 17.7 | 0.00 | 0.00 | 0.00 | 71 | 1010.5 |
| 20260506114523 | 18 | 93 | 3.2 | 17.7 | 0.00 | 0.00 | 0.00 | 71 | 1010.4 |
| 20260506114010 | 18 | 310 | 6.4 | 14.5 | 0.00 | 0.00 | 0.00 | 71 | 1010.3 |
| 20260506113507 | 18 | 256 | 3.2 | 17.7 | 0.00 | 0.00 | 0.00 | 72 | 1010.4 |
| 20260506113006 | 18 | 230 | 4.8 | 17.7 | 0.00 | 0.00 | 0.00 | 71 | 1010.3 |
| 20260506112505 | 18 | 158 | 4.8 | 14.5 | 0.00 | 0.00 | 0.00 | 72 | 1010.2 |
| 20260506112004 | 18 | 194 | 4.8 | 14.5 | 0.00 | 0.00 | 0.00 | 72 | 1010.1 |
| 20260506111507 | 18 | 277 | 1.6 | 11.3 | 0.00 | 0.00 | 0.00 | 73 | 1010.1 |
| 20260506111003 | 18 | 138 | 1.6 | 11.3 | 0.00 | 0.00 | 0.00 | 73 | 1010.0 |
| 20260506110506 | 18 | 213 | 1.6 | 11.3 | 0.00 | 0.00 | 0.00 | 73 | 1010.0 |
| 20260506110009 | 18 | 241 | 3.2 | 12.9 | 0.00 | 0.00 | 0.00 | 73 | 1010.0 |
| 20260506105504 | 18 | 161 | 3.2 | 12.9 | 0.00 | 0.00 | 0.00 | 73 | 1010.1 |
| 20260506105004 | 18 | 99 | 0.0 | 16.1 | 0.00 | 0.00 | 0.00 | 73 | 1010.1 |
| 20260506104508 | 17 | 222 | 1.6 | 16.1 | 0.00 | 0.00 | 0.00 | 73 | 1010.0 |
| 20260506104004 | 17 | 144 | 3.2 | 12.9 | 0.00 | 0.00 | 0.00 | 73 | 1009.9 |
| 20260506103503 | 17 | 297 | 3.2 | 11.3 | 0.00 | 0.00 | 0.00 | 73 | 1009.9 |
| 20260506103007 | 17 | 338 | 1.6 | 19.3 | 0.00 | 0.00 | 0.00 | 73 | 1009.9 |
| 20260506102502 | 17 | 190 | 1.6 | 19.3 | 0.00 | 0.00 | 0.00 | 73 | 1009.9 |
| 20260506102003 | 17 | 190 | 3.2 | 11.3 | 0.00 | 0.00 | 0.00 | 73 | 1009.9 |